map of TIA home
TIA - Airport
Location
City:  Tiranė, Albania
Near (Alt.):Tirana
Name:Rinas Mother Teresa
ICAO:LATI
IATA:TIA

Details
Type:Airport (Aerodrome, Airfield)
Use:Public/Civil, Military
Latitude:41°24'53"N (41.414742)
Longitude:19°43'14"E (19.720561)
Datum:WGS 1984
Elevation:126 ft (38 m)
Variation:4.49°E (WMM2015v2 magnetic declination)
0.12° annual change
Runways:1
Longest:8971 × 148 ft (2734 × 45 m), paved

Time
Time Zone:UTC+1 (DST+2)
Local Time:

Weather
METAR:LATI 041420Z 33002KT 9999 BKN140 17/11 Q1014 NOSIG
TAF:LATI 041100Z 0412/0512 VRB05KT 9999 SCT080 BKN140 TX17/0512Z TN09/0506Z

Related Locations
Nearby:
Farthest:CHT: 11601 mi / 18670 km
Waitangi [Tuuta], CIT, NZ

Find:

   beyond  
but within

Other Information
Maps:
NOTAMs:
Links:
Sources:

  
  • flag of Albania
  

Airport Diagram

Airport diagram for TIA

Larger airport diagram (OBSOLETE) from NGA

Sectional Chart

Flight Planning
at skyvector.com

Satellite Image

Google Maps Satellite view

 

Copyright © 2004-2019 Karl L. Swartz. All rights reserved.
The Great Circle Mapper name and logo are trademarks of the Great Circle Mapper.
All other trademarks mentioned herein belong to their respective owners.
Please see credits for attibutions and further copyright information.

  Follow gcmap on Facebook Follow gcmap on Twitter GCmap on LinkedIn

hCard Microformat

Geo Microformat